Time;durP1;ratioP1;P1;durP2;ratioP2;P2;SDS_P1;SDS_P2;PMS_P1;PMS_P2;Temp;Humidity;BMP_temperature;BMP_pressure;BME280_temperature;BME280_humidity;BME280_pressure;Samples;Min_cycle;Max_cycle;Signal;HPM_P1;HPM_P2
2021/05/28 00:01:50;;;;;;;2.40;1.55;;;16.90;48.00;;;;;;4952264;28;20039;-80
2021/05/28 00:04:16;;;;;;;2.17;1.63;;;16.90;48.10;;;;;;4951761;28;20130;-80
2021/05/28 00:06:42;;;;;;;2.40;1.55;;;16.90;48.20;;;;;;4934770;29;20062;-78
2021/05/28 00:09:08;;;;;;;3.55;1.80;;;16.90;48.30;;;;;;4951350;28;20483;-80
2021/05/28 00:11:34;;;;;;;2.15;1.63;;;16.90;48.40;;;;;;4951982;28;20499;-79
2021/05/28 00:14:00;;;;;;;1.75;1.50;;;16.90;48.50;;;;;;4951346;28;20043;-80
2021/05/28 00:16:26;;;;;;;2.10;1.83;;;16.80;48.40;;;;;;4951235;28;20042;-79
2021/05/28 00:18:53;;;;;;;2.40;1.70;;;16.80;48.40;;;;;;4951774;29;20043;-80
2021/05/28 00:21:19;;;;;;;1.35;1.25;;;16.80;48.50;;;;;;4934585;29;20051;-79
2021/05/28 00:23:47;;;;;;;1.67;1.58;;;16.70;48.40;;;;;;4934016;29;20019;-79
2021/05/28 00:26:13;;;;;;;1.48;1.38;;;16.70;48.50;;;;;;4951593;28;20031;-79
2021/05/28 00:28:39;;;;;;;1.92;1.70;;;16.70;48.60;;;;;;4951398;28;20035;-79
2021/05/28 00:31:05;;;;;;;2.70;1.98;;;16.60;48.50;;;;;;4951239;28;20039;-78
2021/05/28 00:33:31;;;;;;;2.80;1.88;;;16.60;48.50;;;;;;4951406;28;20058;-78
2021/05/28 00:35:57;;;;;;;1.77;1.67;;;16.60;48.60;;;;;;4934157;29;20503;-78
2021/05/28 00:38:23;;;;;;;2.85;1.70;;;16.60;48.70;;;;;;4950638;28;20302;-78
2021/05/28 00:40:49;;;;;;;2.72;1.92;;;16.50;48.60;;;;;;4951167;28;20062;-78
2021/05/28 00:43:15;;;;;;;3.55;1.83;;;16.50;48.70;;;;;;4951780;28;20039;-78
2021/05/28 00:45:41;;;;;;;2.00;1.90;;;16.50;48.70;;;;;;4934087;29;20031;-78
2021/05/28 00:48:08;;;;;;;2.30;1.75;;;16.40;48.60;;;;;;4951035;28;20038;-79
2021/05/28 00:50:34;;;;;;;3.05;1.80;;;16.50;48.80;;;;;;4933675;29;20451;-79
2021/05/28 00:53:00;;;;;;;1.77;1.67;;;16.50;48.90;;;;;;4950540;28;20127;-79
2021/05/28 00:55:27;;;;;;;3.28;1.63;;;16.40;48.80;;;;;;4951334;29;20381;-78
2021/05/28 00:57:55;;;;;;;3.75;2.08;;;16.40;48.90;;;;;;4951615;28;20039;-79
2021/05/28 01:00:25;;;;;;;2.40;1.77;;;16.40;48.90;;;;;;4914928;29;20057;-79
2021/05/28 01:02:51;;;;;;;1.67;1.58;;;16.40;49.00;;;;;;4910477;29;20031;-80
2021/05/28 01:05:18;;;;;;;2.20;1.60;;;16.40;49.00;;;;;;4918296;28;20098;-80
2021/05/28 01:07:44;;;;;;;2.00;1.50;;;16.40;49.10;;;;;;4933322;29;20379;-82
2021/05/28 01:10:11;;;;;;;2.08;1.73;;;16.30;48.90;;;;;;4950312;28;20038;-81
2021/05/28 01:12:38;;;;;;;2.20;2.00;;;16.30;49.00;;;;;;4950952;29;20155;-80
2021/05/28 01:15:06;;;;;;;2.38;1.83;;;16.30;49.00;;;;;;4950461;28;20117;-80
2021/05/28 01:17:32;;;;;;;3.63;1.85;;;16.30;49.10;;;;;;4933587;29;20426;-80
2021/05/28 01:19:59;;;;;;;2.42;2.22;;;16.30;49.20;;;;;;4933104;29;20035;-79
2021/05/28 01:22:25;;;;;;;4.30;1.83;;;16.20;49.10;;;;;;4933025;29;20044;-80
2021/05/28 01:24:51;;;;;;;3.38;2.03;;;16.20;49.10;;;;;;4950619;28;20042;-80
2021/05/28 01:27:18;;;;;;;2.25;1.80;;;16.20;49.20;;;;;;4950688;29;20031;-81
2021/05/28 01:29:45;;;;;;;2.40;1.77;;;16.20;49.30;;;;;;4933121;29;20130;-80
2021/05/28 01:32:11;;;;;;;2.03;1.85;;;16.20;49.40;;;;;;4933662;29;20111;-81
2021/05/28 01:34:37;;;;;;;2.97;1.70;;;16.20;49.40;;;;;;4915863;29;20059;-81
2021/05/28 01:37:03;;;;;;;1.80;1.70;;;16.10;49.30;;;;;;4932804;29;20051;-81
2021/05/28 01:39:30;;;;;;;2.47;2.00;;;16.10;49.40;;;;;;4944172;28;20027;-81
2021/05/28 01:41:56;;;;;;;4.28;2.13;;;16.10;49.40;;;;;;4951551;28;20039;-82
2021/05/28 01:44:22;;;;;;;2.50;2.00;;;16.10;49.50;;;;;;4951589;28;20379;-84
2021/05/28 01:46:49;;;;;;;2.78;2.15;;;16.00;49.40;;;;;;4938264;28;20035;-82
2021/05/28 01:49:15;;;;;;;2.15;1.63;;;16.00;49.40;;;;;;4918883;29;20487;-82
2021/05/28 01:51:49;;;;;;;2.50;1.70;;;16.00;49.50;;;;;;4918333;29;20032;-81
2021/05/28 01:54:16;;;;;;;;;;;16.00;49.60;;;;;;4935588;29;20057;-81
2021/05/28 01:56:45;;;;;;;2.95;2.05;;;16.00;49.40;;;;;;4935511;29;19917;-82
2021/05/28 01:59:24;;;;;;;2.40;2.00;;;15.90;49.20;;;;;;4935408;29;20054;-81
2021/05/28 02:01:51;;;;;;;2.28;1.80;;;15.90;49.40;;;;;;4916046;29;20063;-82
2021/05/28 02:04:18;;;;;;;3.20;1.80;;;15.90;49.40;;;;;;4915853;29;20044;-81
2021/05/28 02:06:44;;;;;;;2.70;2.05;;;15.90;49.50;;;;;;4935272;29;20472;-81
2021/05/28 02:09:10;;;;;;;2.60;1.90;;;15.90;49.60;;;;;;4935505;29;20035;-81
2021/05/28 02:11:36;;;;;;;2.33;2.03;;;15.90;49.60;;;;;;4935120;29;20368;-80
2021/05/28 02:14:02;;;;;;;2.35;1.92;;;15.80;49.50;;;;;;4934914;29;20502;-80
2021/05/28 02:16:28;;;;;;;4.00;1.73;;;15.90;49.70;;;;;;4934880;29;20032;-81
2021/05/28 02:18:56;;;;;;;2.17;1.75;;;15.80;49.60;;;;;;4935197;29;20046;-81
2021/05/28 02:21:22;;;;;;;2.28;2.03;;;15.80;49.60;;;;;;4935098;29;20058;-80
2021/05/28 02:23:48;;;;;;;2.03;1.77;;;15.80;49.70;;;;;;4934995;29;20059;-81
2021/05/28 02:26:14;;;;;;;1.77;1.67;;;15.80;49.70;;;;;;4934921;29;20063;-81
2021/05/28 02:28:39;;;;;;;1.98;1.77;;;15.80;49.80;;;;;;4917889;29;20043;-80
2021/05/28 02:31:05;;;;;;;2.00;1.90;;;15.70;49.60;;;;;;4934713;29;20032;-80
2021/05/28 02:33:31;;;;;;;2.45;1.83;;;15.80;49.90;;;;;;4917658;29;20415;-80
2021/05/28 02:35:59;;;;;;;3.22;1.75;;;15.70;49.70;;;;;;4934663;29;20452;-80
2021/05/28 02:38:25;;;;;;;2.15;1.75;;;15.70;49.80;;;;;;4934880;29;20118;-80
2021/05/28 02:40:51;;;;;;;3.03;1.90;;;15.70;49.80;;;;;;4934576;29;20039;-80
2021/05/28 02:43:17;;;;;;;3.33;2.20;;;15.70;49.90;;;;;;4901778;29;20035;-80
2021/05/28 02:45:42;;;;;;;1.73;1.60;;;15.70;50.00;;;;;;4934895;29;20058;-80
2021/05/28 02:48:08;;;;;;;2.40;2.20;;;15.60;49.80;;;;;;4917455;29;20031;-80
2021/05/28 02:50:34;;;;;;;3.65;1.92;;;15.60;49.90;;;;;;4934255;29;20376;-81
2021/05/28 02:53:01;;;;;;;1.98;1.88;;;15.50;49.80;;;;;;4934816;29;20179;-79
2021/05/28 02:55:28;;;;;;;2.20;2.00;;;15.50;49.90;;;;;;4917272;29;20043;-80
2021/05/28 02:57:54;;;;;;;2.63;1.70;;;15.50;49.90;;;;;;4916992;29;20114;-80
2021/05/28 03:00:22;;;;;;;2.88;2.08;;;15.50;49.90;;;;;;4934510;29;20183;-79
2021/05/28 03:02:49;;;;;;;1.67;1.50;;;15.50;50.00;;;;;;4917390;29;20483;-81
2021/05/28 03:05:16;;;;;;;2.63;1.85;;;15.40;50.50;;;;;;4934617;29;20028;-79
2021/05/28 03:07:42;;;;;;;1.90;1.60;;;15.40;50.00;;;;;;4934187;29;20032;-81
2021/05/28 03:10:09;;;;;;;2.63;1.90;;;15.40;50.00;;;;;;4934272;29;20031;-81
2021/05/28 03:12:34;;;;;;;1.88;1.60;;;15.40;50.10;;;;;;4933878;29;20035;-80
2021/05/28 03:15:00;;;;;;;2.50;1.98;;;15.40;50.10;;;;;;4934231;29;20036;-81
2021/05/28 03:17:27;;;;;;;1.85;1.75;;;15.40;50.20;;;;;;4917263;29;20118;-81
2021/05/28 03:19:53;;;;;;;3.65;1.80;;;15.40;50.20;;;;;;4917096;29;20032;-80
2021/05/28 03:25:08;;;;;;;2.35;1.80;;;15.30;50.10;;;;;;4935151;29;20110;-80
2021/05/28 03:27:35;;;;;;;3.20;1.90;;;15.30;50.10;;;;;;4905487;29;20039;-81
2021/05/28 03:30:06;;;;;;;3.33;1.75;;;15.30;50.20;;;;;;4921067;29;20055;-81
2021/05/28 03:32:32;;;;;;;2.42;1.95;;;15.30;50.20;;;;;;4937649;29;20513;-81
2021/05/28 03:34:58;;;;;;;2.42;1.58;;;15.30;50.20;;;;;;4921004;29;20036;-83
2021/05/28 03:37:25;;;;;;;2.60;1.70;;;15.20;50.10;;;;;;4937957;29;20296;-82
2021/05/28 03:39:52;;;;;;;3.22;1.88;;;15.20;50.20;;;;;;4937721;29;20082;-80
2021/05/28 03:42:18;;;;;;;7.90;1.92;;;15.20;50.20;;;;;;4920490;29;20083;-82
2021/05/28 03:44:45;;;;;;;2.13;1.92;;;15.20;50.30;;;;;;4937603;29;20119;-81
2021/05/28 03:47:12;;;;;;;4.85;1.65;;;15.20;50.30;;;;;;4920518;29;20074;-80
2021/05/28 03:49:39;;;;;;;1.77;1.60;;;15.10;50.20;;;;;;4937528;29;20031;-81
2021/05/28 03:52:05;;;;;;;2.15;1.80;;;15.10;50.30;;;;;;4937536;29;20399;-83
2021/05/28 03:54:32;;;;;;;2.90;1.90;;;15.10;50.30;;;;;;4937289;29;20139;-80
2021/05/28 03:56:58;;;;;;;2.90;2.10;;;15.10;50.40;;;;;;4920240;29;20078;-80
2021/05/28 03:59:24;;;;;;;2.15;1.80;;;15.10;50.50;;;;;;4937618;29;20484;-80
2021/05/28 04:01:50;;;;;;;1.65;1.55;;;15.10;50.60;;;;;;4937429;29;20059;-79
2021/05/28 04:04:16;;;;;;;2.33;1.73;;;15.00;50.90;;;;;;4937238;29;20024;-80
2021/05/28 04:06:42;;;;;;;1.80;1.70;;;15.00;50.40;;;;;;4936910;29;20088;-80
2021/05/28 04:09:08;;;;;;;2.55;1.80;;;15.00;50.40;;;;;;4937067;29;20040;-80
2021/05/28 04:11:34;;;;;;;3.22;2.10;;;15.00;50.50;;;;;;4937321;29;20042;-81
2021/05/28 04:14:00;;;;;;;2.28;1.85;;;15.00;50.50;;;;;;4936964;29;20044;-80
2021/05/28 04:16:26;;;;;;;2.65;2.17;;;15.00;50.60;;;;;;4937062;29;20146;-79
2021/05/28 04:18:52;;;;;;;2.63;2.08;;;14.90;50.40;;;;;;4936959;29;20034;-80
2021/05/28 04:21:18;;;;;;;1.90;1.70;;;14.90;50.50;;;;;;4919697;29;20059;-80
2021/05/28 04:23:44;;;;;;;2.35;1.80;;;15.00;50.70;;;;;;4937346;29;20035;-80
2021/05/28 04:26:10;;;;;;;2.53;1.60;;;14.90;50.50;;;;;;4937138;29;20479;-80
2021/05/28 04:28:36;;;;;;;3.03;1.67;;;14.90;50.50;;;;;;4929028;29;20036;-80
2021/05/28 04:31:02;;;;;;;2.53;1.63;;;14.90;50.60;;;;;;4931269;29;20035;-81
2021/05/28 04:33:28;;;;;;;2.25;1.75;;;14.90;50.70;;;;;;4936601;29;20066;-81
2021/05/28 04:35:54;;;;;;;3.10;2.40;;;14.90;50.70;;;;;;4936274;29;20032;-80
2021/05/28 04:38:20;;;;;;;3.08;2.00;;;14.90;50.70;;;;;;4936259;29;20027;-79
2021/05/28 04:40:48;;;;;;;2.03;1.67;;;14.90;50.70;;;;;;4919709;29;20027;-79
2021/05/28 04:43:14;;;;;;;3.85;2.10;;;14.90;51.30;;;;;;4936623;29;20504;-80
2021/05/28 04:45:40;;;;;;;1.90;1.50;;;14.90;50.70;;;;;;4936403;29;20031;-79
2021/05/28 04:48:06;;;;;;;2.42;1.80;;;14.90;50.80;;;;;;4924620;29;20488;-80
2021/05/28 04:50:33;;;;;;;1.73;1.63;;;14.90;50.80;;;;;;4897751;29;20040;-79
2021/05/28 04:53:03;;;;;;;1.70;1.60;;;14.90;50.80;;;;;;4914227;29;20043;-79
2021/05/28 04:55:30;;;;;;;1.83;1.70;;;14.90;50.80;;;;;;4881686;29;20036;-80
2021/05/28 04:57:56;;;;;;;2.20;2.00;;;14.90;50.80;;;;;;4923726;29;20037;-80
2021/05/28 05:00:23;;;;;;;4.15;2.03;;;14.90;50.90;;;;;;4934854;29;20031;-79
2021/05/28 05:02:49;;;;;;;2.50;1.77;;;14.90;50.90;;;;;;4938341;29;20028;-79
2021/05/28 05:05:16;;;;;;;3.30;1.98;;;14.90;50.90;;;;;;4912425;29;20080;-80
2021/05/28 05:07:42;;;;;;;1.73;1.60;;;14.90;50.90;;;;;;4901518;29;20391;-81
2021/05/28 05:10:10;;;;;;;2.88;1.67;;;15.00;51.10;;;;;;4950561;28;20090;-79
2021/05/28 05:12:37;;;;;;;4.22;1.80;;;15.00;51.10;;;;;;4950713;28;20047;-79
2021/05/28 05:15:03;;;;;;;2.15;1.85;;;15.00;51.10;;;;;;4930961;29;20130;-80
2021/05/28 05:17:29;;;;;;;2.47;2.03;;;15.00;51.00;;;;;;4915065;29;20067;-80
2021/05/28 05:19:55;;;;;;;2.90;2.13;;;15.00;51.00;;;;;;4950584;28;20046;-80
2021/05/28 05:22:21;;;;;;;3.05;1.90;;;15.00;51.00;;;;;;4922554;29;20351;-79
2021/05/28 05:24:47;;;;;;;2.22;1.75;;;15.10;51.10;;;;;;4919766;29;20199;-79
2021/05/28 05:27:14;;;;;;;2.13;1.75;;;15.10;51.10;;;;;;4895216;29;20080;-81
2021/05/28 05:29:40;;;;;;;2.40;1.58;;;15.10;51.10;;;;;;4931772;29;20045;-80
2021/05/28 05:32:06;;;;;;;1.73;1.63;;;15.10;51.10;;;;;;4916711;29;20027;-81
2021/05/28 05:34:32;;;;;;;2.30;1.95;;;15.10;51.00;;;;;;4950756;28;20103;-81
2021/05/28 05:37:01;;;;;;;3.90;2.05;;;15.20;51.20;;;;;;4933066;29;20035;-80
2021/05/28 05:39:31;;;;;;;6.95;1.92;;;15.20;51.20;;;;;;4950293;28;20095;-81
2021/05/28 05:41:57;;;;;;;2.78;1.63;;;15.20;51.10;;;;;;4932605;29;20027;-80
2021/05/28 05:44:23;;;;;;;1.65;1.55;;;15.30;51.30;;;;;;4931496;29;20032;-82
2021/05/28 05:46:49;;;;;;;1.63;1.52;;;15.30;51.30;;;;;;4913838;29;20050;-82
2021/05/28 05:49:15;;;;;;;2.47;1.95;;;15.30;51.20;;;;;;4945773;28;20471;-80
2021/05/28 05:51:41;;;;;;;1.75;1.55;;;15.40;51.30;;;;;;4950898;28;20479;-81
2021/05/28 05:54:07;;;;;;;2.70;2.20;;;15.50;51.40;;;;;;4947254;28;20125;-80
2021/05/28 05:56:33;;;;;;;1.77;1.65;;;15.60;51.50;;;;;;4913848;29;20054;-81
2021/05/28 05:59:00;;;;;;;2.05;1.85;;;15.60;51.40;;;;;;4894346;29;20471;-79
2021/05/28 06:01:26;;;;;;;1.80;1.70;;;15.70;51.50;;;;;;4894577;29;20028;-79
2021/05/28 06:03:52;;;;;;;1.60;1.45;;;15.70;51.40;;;;;;4925870;29;20039;-81
2021/05/28 06:06:18;;;;;;;2.00;1.80;;;15.80;51.60;;;;;;4949408;28;20031;-80
2021/05/28 06:08:44;;;;;;;1.90;1.67;;;15.80;51.50;;;;;;4949247;29;20035;-78
2021/05/28 06:11:10;;;;;;;2.00;1.80;;;15.90;51.60;;;;;;4948583;29;20039;-79
2021/05/28 06:13:36;;;;;;;1.80;1.70;;;15.80;51.40;;;;;;4948434;28;20098;-82
2021/05/28 06:16:02;;;;;;;5.00;1.73;;;15.90;51.50;;;;;;4949192;28;20479;-79
2021/05/28 06:18:28;;;;;;;1.85;1.75;;;15.90;51.50;;;;;;4948204;28;20035;-79
2021/05/28 06:20:54;;;;;;;2.63;1.73;;;15.90;51.40;;;;;;4932255;29;20499;-81
2021/05/28 06:23:20;;;;;;;2.75;1.75;;;16.00;51.60;;;;;;4949286;29;20123;-80
2021/05/28 06:25:47;;;;;;;2.90;1.50;;;16.00;51.60;;;;;;4932199;29;20088;-79
2021/05/28 06:28:14;;;;;;;2.38;1.90;;;16.00;51.50;;;;;;4931813;29;20365;-80
2021/05/28 06:30:40;;;;;;;2.28;1.48;;;16.10;51.90;;;;;;4949460;28;20072;-80
2021/05/28 06:33:07;;;;;;;2.08;1.83;;;16.10;51.60;;;;;;4949069;29;20042;-81
2021/05/28 06:35:34;;;;;;;2.20;2.00;;;16.10;51.60;;;;;;4949034;28;20035;-79
2021/05/28 06:38:01;;;;;;;2.88;2.05;;;16.20;51.80;;;;;;4947636;28;20535;-80
2021/05/28 06:40:27;;;;;;;2.35;1.70;;;16.20;51.70;;;;;;4949358;28;20027;-80
2021/05/28 06:42:53;;;;;;;2.80;1.98;;;16.20;51.60;;;;;;4948624;28;20069;-78
2021/05/28 06:45:19;;;;;;;1.70;1.60;;;16.20;51.60;;;;;;4949007;28;20038;-80
2021/05/28 06:47:47;;;;;;;1.90;1.70;;;16.30;51.80;;;;;;4948967;29;20383;-79
2021/05/28 06:50:14;;;;;;;1.85;1.70;;;16.30;51.70;;;;;;4948675;28;20079;-81
2021/05/28 06:52:41;;;;;;;2.20;2.00;;;16.40;51.80;;;;;;4931601;29;20045;-78
2021/05/28 06:55:08;;;;;;;2.47;1.90;;;16.40;51.80;;;;;;4931926;29;20035;-79
2021/05/28 06:57:35;;;;;;;2.10;1.80;;;16.40;51.70;;;;;;4948906;29;20110;-79
2021/05/28 07:00:01;;;;;;;2.17;1.95;;;16.50;51.80;;;;;;4948846;28;20063;-79
2021/05/28 07:02:28;;;;;;;1.75;1.63;;;16.50;51.80;;;;;;4949208;28;20023;-81
2021/05/28 07:04:53;;;;;;;3.35;1.80;;;16.50;51.80;;;;;;4932467;28;20031;-81
2021/05/28 07:07:19;;;;;;;2.78;2.00;;;16.60;52.00;;;;;;4949057;29;20114;-81
2021/05/28 07:09:46;;;;;;;2.10;1.58;;;16.60;51.90;;;;;;4931880;29;20489;-80
2021/05/28 07:12:12;;;;;;;2.70;1.90;;;16.70;52.00;;;;;;4945615;29;20062;-81
2021/05/28 07:14:38;;;;;;;1.80;1.70;;;16.70;51.90;;;;;;4913074;29;20124;-80
2021/05/28 07:17:05;;;;;;;2.17;1.88;;;16.80;52.10;;;;;;4930000;29;20095;-80
2021/05/28 07:19:31;;;;;;;1.85;1.65;;;16.80;52.00;;;;;;4946186;29;20042;-78
2021/05/28 07:21:57;;;;;;;2.88;1.85;;;16.90;52.10;;;;;;4931548;29;20051;-82
2021/05/28 07:24:23;;;;;;;3.80;2.00;;;17.00;52.20;;;;;;4949243;28;20483;-79
2021/05/28 07:26:49;;;;;;;3.30;1.90;;;17.00;52.40;;;;;;4949315;28;20031;-79
2021/05/28 07:29:15;;;;;;;3.75;2.38;;;17.00;52.80;;;;;;4950298;29;20090;-82
2021/05/28 07:31:42;;;;;;;3.95;2.22;;;17.10;53.20;;;;;;4950132;28;20041;-82
2021/05/28 07:34:08;;;;;;;4.85;2.40;;;17.20;53.50;;;;;;4950719;29;20125;-82
2021/05/28 07:36:34;;;;;;;5.15;2.00;;;17.30;53.70;;;;;;4917647;29;20028;-79
2021/05/28 07:39:00;;;;;;;4.57;2.30;;;17.30;53.60;;;;;;4943513;28;20046;-83
2021/05/28 07:41:25;;;;;;;3.78;2.28;;;17.50;53.90;;;;;;4931636;29;20039;-80
2021/05/28 07:43:51;;;;;;;4.82;2.28;;;17.50;53.80;;;;;;4948859;28;20427;-81
2021/05/28 07:46:17;;;;;;;2.50;2.30;;;17.60;53.90;;;;;;4948285;28;20043;-78
2021/05/28 07:48:44;;;;;;;3.40;2.17;;;17.60;53.80;;;;;;4948615;28;20031;-82
2021/05/28 07:51:09;;;;;;;2.20;2.00;;;17.70;53.80;;;;;;4932836;29;20952;-84
2021/05/28 07:53:36;;;;;;;4.32;2.50;;;17.80;53.90;;;;;;4949124;28;20121;-80
2021/05/28 07:56:05;;;;;;;3.67;2.58;;;17.90;53.90;;;;;;4949008;28;20034;-81
2021/05/28 07:58:32;;;;;;;3.33;2.42;;;17.90;53.80;;;;;;4948365;28;20546;-82
2021/05/28 08:00:59;;;;;;;4.05;2.25;;;18.00;53.90;;;;;;4949505;28;20070;-82
2021/05/28 08:03:25;;;;;;;3.67;2.35;;;18.00;53.70;;;;;;4949077;28;20035;-82
2021/05/28 08:05:51;;;;;;;2.58;2.00;;;18.10;53.70;;;;;;4931694;29;20035;-80
2021/05/28 08:08:19;;;;;;;3.22;2.10;;;18.10;53.60;;;;;;4948600;28;20082;-78
2021/05/28 08:10:46;;;;;;;2.53;2.33;;;18.20;53.70;;;;;;4949013;28;20023;-77
2021/05/28 08:13:12;;;;;;;5.53;2.58;;;18.30;53.80;;;;;;4951294;28;20031;-81
2021/05/28 08:15:39;;;;;;;3.72;2.55;;;18.30;53.70;;;;;;4952155;28;20039;-79
2021/05/28 08:18:05;;;;;;;2.58;1.90;;;18.40;53.70;;;;;;4951578;28;20510;-79
2021/05/28 08:20:32;;;;;;;2.92;2.25;;;18.50;53.80;;;;;;4934251;29;20067;-79
2021/05/28 08:22:59;;;;;;;3.00;2.25;;;18.50;53.70;;;;;;4951240;28;20558;-78
2021/05/28 08:25:26;;;;;;;3.22;1.90;;;18.50;53.60;;;;;;4934506;28;20131;-78
2021/05/28 08:27:53;;;;;;;2.92;2.20;;;18.60;53.60;;;;;;4951890;29;20031;-80
2021/05/28 08:30:20;;;;;;;2.50;2.00;;;18.70;53.70;;;;;;4911798;29;20032;-78
2021/05/28 08:32:46;;;;;;;3.17;1.85;;;18.70;53.60;;;;;;4926407;28;20038;-81
2021/05/28 08:35:14;;;;;;;3.80;2.00;;;18.70;53.50;;;;;;4932442;29;20060;-79
2021/05/28 08:37:41;;;;;;;2.45;2.03;;;18.80;53.60;;;;;;4950907;29;20036;-79
2021/05/28 08:40:08;;;;;;;2.15;1.95;;;18.90;53.70;;;;;;4951499;28;20046;-81
2021/05/28 08:42:35;;;;;;;2.72;1.80;;;18.90;53.60;;;;;;4952152;28;20031;-86
2021/05/28 08:45:01;;;;;;;3.83;2.38;;;18.90;53.50;;;;;;4952122;28;20035;-83
2021/05/28 08:47:27;;;;;;;2.40;2.20;;;19.00;53.60;;;;;;4951760;29;20027;-82
2021/05/28 08:49:59;;;;;;;2.20;1.80;;;19.00;53.50;;;;;;4952094;29;20402;-83
2021/05/28 08:52:25;;;;;;;2.92;1.90;;;19.10;53.70;;;;;;4951696;28;20035;-82
2021/05/28 08:54:51;;;;;;;3.03;2.00;;;19.10;53.60;;;;;;4951858;28;20501;-83
2021/05/28 08:57:19;;;;;;;3.40;2.05;;;19.20;53.60;;;;;;4951334;28;20023;-85
2021/05/28 08:59:46;;;;;;;2.00;1.83;;;19.30;53.70;;;;;;4934716;28;20031;-84
2021/05/28 09:02:28;;;;;;;3.58;2.00;;;19.30;53.50;;;;;;4951607;28;20032;-81
2021/05/28 09:05:31;;;;;;;2.55;2.05;;;19.40;53.60;;;;;;4934176;29;20209;-83
2021/05/28 09:07:59;;;;;;;2.38;1.65;;;19.50;53.60;;;;;;4901937;29;20038;-83
2021/05/28 09:10:27;;;;;;;2.58;1.70;;;19.50;53.50;;;;;;4951359;28;20027;-84
2021/05/28 09:12:54;;;;;;;2.75;2.08;;;19.60;53.60;;;;;;4950624;28;20082;-83
2021/05/28 09:15:21;;;;;;;2.80;1.80;;;19.60;53.50;;;;;;4950714;28;20406;-82
2021/05/28 09:17:51;;;;;;;2.45;1.70;;;19.70;53.60;;;;;;4950906;28;20487;-80
2021/05/28 09:20:20;;;;;;;1.70;1.58;;;19.70;54.20;;;;;;4933988;29;20035;-81
2021/05/28 09:22:46;;;;;;;2.85;1.65;;;19.80;53.70;;;;;;4949441;28;20043;-80
2021/05/28 09:25:13;;;;;;;2.53;1.95;;;19.80;53.60;;;;;;4950810;28;20035;-86
2021/05/28 09:27:40;;;;;;;2.92;1.77;;;20.00;53.90;;;;;;4950434;28;20027;-83
2021/05/28 09:30:13;;;;;;;1.95;1.65;;;20.00;53.80;;;;;;4950652;28;20472;-83
2021/05/28 09:32:45;;;;;;;2.30;1.90;;;20.10;53.90;;;;;;4951221;28;20398;-81
2021/05/28 09:35:17;;;;;;;2.83;1.85;;;20.30;54.10;;;;;;4919781;29;20035;-84
2021/05/28 09:37:47;;;;;;;3.17;1.92;;;20.40;54.10;;;;;;4952207;28;20032;-84
2021/05/28 09:40:28;;;;;;;2.05;1.85;;;20.60;54.20;;;;;;4951774;28;20031;-89
2021/05/28 09:42:59;;;;;;;2.53;1.88;;;20.70;54.10;;;;;;4936724;29;20467;-82
2021/05/28 09:45:30;;;;;;;2.55;2.03;;;20.90;54.20;;;;;;4920063;29;20062;-79
2021/05/28 09:48:01;;;;;;;2.33;1.77;;;21.00;54.20;;;;;;4935902;29;20534;-85
2021/05/28 09:50:32;;;;;;;1.95;1.63;;;21.10;54.20;;;;;;4952885;28;20078;-88
2021/05/28 09:53:05;;;;;;;3.38;1.70;;;21.20;54.20;;;;;;4920132;29;20557;-82
2021/05/28 09:55:32;;;;;;;2.22;1.70;;;21.30;54.10;;;;;;4919246;29;20027;-81
2021/05/28 09:58:01;;;;;;;3.10;2.03;;;21.40;54.20;;;;;;4918922;28;20042;-84
2021/05/28 10:00:34;;;;;;;17.77;2.00;;;21.60;54.30;;;;;;4918803;29;20427;-80
2021/05/28 10:03:19;;;;;;;4.47;2.20;;;21.70;54.30;;;;;;4917637;29;20510;-82
2021/05/28 10:05:58;;;;;;;2.20;1.40;;;21.90;54.40;;;;;;4932367;29;20065;-79
2021/05/28 10:08:27;;;;;;;3.13;1.50;;;22.00;54.30;;;;;;4917745;29;20023;-83
2021/05/28 10:10:55;;;;;;;2.00;1.80;;;22.20;54.40;;;;;;4917631;29;20027;-85
2021/05/28 10:13:25;;;;;;;1.80;1.65;;;22.30;54.30;;;;;;4916644;28;20471;-84
2021/05/28 10:15:55;;;;;;;2.53;1.60;;;22.50;54.50;;;;;;4933559;29;20409;-82
2021/05/28 10:18:23;;;;;;;2.25;1.40;;;22.60;54.50;;;;;;4950400;29;20034;-82
2021/05/28 10:20:52;;;;;;;2.33;1.67;;;22.70;54.40;;;;;;4949807;29;20471;-83
2021/05/28 10:23:18;;;;;;;2.22;1.92;;;22.90;54.50;;;;;;4916592;29;20038;-83
2021/05/28 10:25:46;;;;;;;2.80;1.48;;;23.00;54.50;;;;;;4932641;28;20035;-81
2021/05/28 10:28:20;;;;;;;1.80;1.40;;;23.20;54.60;;;;;;4916415;29;20050;-82
2021/05/28 10:30:49;;;;;;;2.70;1.77;;;23.30;54.50;;;;;;4932091;29;20447;-81
2021/05/28 10:33:26;;;;;;;2.85;1.98;;;23.50;54.70;;;;;;4931178;29;20039;-81
2021/05/28 10:36:01;;;;;;;6.50;4.47;;;23.70;54.80;;;;;;4916335;29;20406;-81
2021/05/28 10:38:30;;;;;;;2.92;2.58;;;23.80;54.60;;;;;;4916738;29;20039;-80
2021/05/28 10:41:19;;;;;;;1.95;1.85;;;24.00;54.80;;;;;;4917363;29;20078;-80
2021/05/28 10:43:51;;;;;;;2.20;1.90;;;24.10;54.70;;;;;;4917520;29;20045;-81
2021/05/28 10:46:18;;;;;;;3.38;2.03;;;24.20;54.60;;;;;;4916813;29;20148;-79
2021/05/28 10:48:44;;;;;;;2.25;1.95;;;24.30;54.80;;;;;;4915625;29;20059;-80
2021/05/28 10:51:24;;;;;;;2.08;1.88;;;24.40;54.90;;;;;;4915635;29;20066;-81
2021/05/28 10:53:53;;;;;;;2.53;1.60;;;24.50;54.80;;;;;;4915680;28;20066;-79
2021/05/28 10:56:22;;;;;;;1.92;1.73;;;24.50;54.70;;;;;;4915968;28;20039;-81
2021/05/28 10:58:56;;;;;;;3.38;1.80;;;24.60;54.70;;;;;;4915753;29;20720;-81
2021/05/28 11:01:31;;;;;;;;;;;24.70;54.70;;;;;;4915875;29;20439;-81
2021/05/28 11:04:02;;;;;;;2.72;1.70;;;24.80;55.00;;;;;;4915614;29;20066;-82
2021/05/28 11:06:30;;;;;;;4.88;1.60;;;24.90;54.90;;;;;;4915437;29;20304;-81
2021/05/28 11:09:05;;;;;;;2.13;1.67;;;24.90;54.80;;;;;;4915589;29;20035;-81
2021/05/28 11:11:43;;;;;;;1.90;1.60;;;25.00;54.70;;;;;;4915653;28;20031;-80
2021/05/28 11:14:19;;;;;;;3.45;1.88;;;25.10;54.60;;;;;;4931082;29;20130;-80
2021/05/28 11:16:57;;;;;;;2.92;1.60;;;25.20;54.30;;;;;;4931064;28;20038;-80
2021/05/28 11:19:32;;;;;;;2.17;1.63;;;25.40;54.30;;;;;;4931405;29;20057;-79
2021/05/28 11:22:05;;;;;;;2.58;1.65;;;25.50;54.20;;;;;;4931206;29;20553;-80
2021/05/28 11:24:46;;;;;;;1.88;1.52;;;25.60;54.10;;;;;;4948978;29;20065;-81
2021/05/28 11:27:35;;;;;;;2.88;1.60;;;25.70;54.00;;;;;;4948538;28;20043;-79
2021/05/28 11:30:03;;;;;;;2.72;1.85;;;25.90;53.90;;;;;;4948379;28;20109;-77
2021/05/28 11:32:33;;;;;;;1.58;1.23;;;26.00;53.70;;;;;;4947953;28;20487;-78
2021/05/28 11:35:15;;;;;;;1.77;1.40;;;26.10;53.60;;;;;;4948068;28;20487;-79
2021/05/28 11:37:43;;;;;;;2.08;1.50;;;26.20;53.50;;;;;;4948465;29;20114;-79
2021/05/28 11:40:20;;;;;;;2.00;1.50;;;26.30;53.30;;;;;;4947947;28;20086;-79
2021/05/28 11:42:47;;;;;;;1.70;1.27;;;26.60;53.20;;;;;;4947850;28;20031;-79
2021/05/28 11:45:15;;;;;;;2.28;1.33;;;26.80;53.10;;;;;;4947828;28;20505;-77
2021/05/28 11:47:42;;;;;;;2.38;1.40;;;27.00;52.90;;;;;;4951752;29;20035;-78
2021/05/28 11:50:17;;;;;;;1.52;1.20;;;27.10;52.70;;;;;;4952699;28;20162;-78
2021/05/28 11:53:03;;;;;;;2.13;1.58;;;27.30;52.50;;;;;;4951781;28;20042;-78
2021/05/28 11:55:31;;;;;;;1.92;1.60;;;27.50;52.30;;;;;;4951366;28;20050;-78
2021/05/28 11:58:02;;;;;;;1.85;1.58;;;27.80;52.20;;;;;;4934954;29;20098;-79
2021/05/28 12:00:32;;;;;;;2.10;1.23;;;27.90;51.90;;;;;;4934535;29;20738;-77
2021/05/28 12:02:59;;;;;;;1.58;1.48;;;28.10;51.70;;;;;;4951754;28;20077;-78
2021/05/28 12:05:34;;;;;;;1.75;1.38;;;28.20;51.60;;;;;;4935146;29;20126;-80
2021/05/28 12:08:15;;;;;;;1.70;1.50;;;28.30;51.50;;;;;;4950275;28;20038;-81
2021/05/28 12:10:49;;;;;;;1.58;1.20;;;28.30;51.30;;;;;;4951547;28;20035;-80
2021/05/28 12:13:17;;;;;;;1.20;1.10;;;28.40;51.20;;;;;;4918091;28;20122;-78
2021/05/28 12:15:52;;;;;;;3.53;1.40;;;28.40;51.10;;;;;;4951761;29;20039;-79
2021/05/28 12:18:36;;;;;;;1.42;1.17;;;28.60;51.10;;;;;;4933877;29;20039;-79
2021/05/28 12:21:11;;;;;;;1.40;1.30;;;28.60;51.00;;;;;;4951251;28;20077;-78
2021/05/28 12:23:38;;;;;;;1.70;1.35;;;28.70;50.90;;;;;;4934323;29;20406;-80
2021/05/28 12:26:13;;;;;;;1.50;1.23;;;28.90;50.90;;;;;;4933879;29;20263;-79
2021/05/28 12:28:55;;;;;;;2.15;1.45;;;28.90;50.70;;;;;;4951120;28;20058;-78
2021/05/28 12:31:22;;;;;;;2.33;1.52;;;29.00;50.60;;;;;;4918193;29;20094;-77
2021/05/28 12:33:52;;;;;;;1.52;1.13;;;29.10;50.50;;;;;;4933638;29;20047;-79
2021/05/28 12:36:44;;;;;;;1.38;1.20;;;29.20;50.50;;;;;;4934394;29;20102;-79
2021/05/28 12:39:16;;;;;;;2.05;1.38;;;29.20;51.00;;;;;;4950552;29;20073;-78
2021/05/28 12:41:44;;;;;;;1.70;1.10;;;29.30;50.30;;;;;;4951049;29;20030;-78
2021/05/28 12:44:19;;;;;;;1.25;1.10;;;29.40;50.30;;;;;;4950702;28;20478;-79
2021/05/28 12:47:03;;;;;;;1.73;1.48;;;29.50;50.10;;;;;;4950871;28;20043;-78
2021/05/28 12:49:33;;;;;;;2.03;1.15;;;29.60;50.00;;;;;;4951125;28;20036;-79
2021/05/28 12:52:01;;;;;;;1.40;1.10;;;29.80;49.90;;;;;;4934235;29;20402;-80
2021/05/28 12:54:30;;;;;;;1.80;1.23;;;30.00;49.80;;;;;;4933384;29;20035;-80
2021/05/28 12:56:58;;;;;;;1.95;1.25;;;30.00;49.60;;;;;;4917490;28;20037;-79